Tzoanna Vi — SYHY — position and weather

sailwx.info

Track history (hours):
 
Tides and Currents Weather Stations Pressure Air Temp Water Temp Dewpoint Dewpoint Depression Visibility Wind Speed Wind Dir Waves Ship Positions

Tzoanna Vi

Last reported at 2015-Mar-28 03:16 UTC. Time now 2015-Mar-30 09:27 UTC.
Position N 37°47' E 024°11'.

Length 84 m; draft 5.5 m.

Type: Cargo ship. MMSI: 237991700.

Date/timePositionNaut miles runAvg speedWind from/ knotsBaromVisibWave heightAir tempDewpointWater temp
2015-Mar-28 03:16N 37°47' E 024°11'8 8.8
2015-Mar-28 02:24N 37°54' E 024°09'7 8.8
2015-Mar-28 01:34N 38°02' E 024°09'9 9.1
2015-Mar-28 00:33N 38°11' E 024°07'18 8.9
2015-Mar-27 22:33N 38°21' E 023°49'  
2015-Mar-19 23:33N 37°40' E 023°42'8 8.4
2015-Mar-19 22:33N 37°48' E 023°37'9 8.0
2015-Mar-19 21:29N 37°50' E 023°27'11 0.3
2015-Mar-18 12:11N 37°43' E 023°17'6 8.5
2015-Mar-18 11:32N 37°39' E 023°22'10 9.8
2015-Mar-18 10:33N 37°39' E 023°34'9 9.5
2015-Mar-18 09:33N 37°38' E 023°46'31 7.6
2015-Mar-18 05:29N 38°05' E 024°05'  
Track history (hours):
 
Tides and Currents Weather Stations Pressure Air Temp Water Temp Dewpoint Dewpoint Depression Visibility Wind Speed Wind Dir Waves Ship Positions

Tzoanna Vi

Last reported at 2015-Mar-28 03:16 UTC. Time now 2015-Mar-30 09:27 UTC.
Position N 37°47' E 024°11'.

Length 84 m; draft 5.5 m.

Type: Cargo ship. MMSI: 237991700.

Date/timePositionNaut miles runAvg speedWind from/ knotsBaromVisibWave heightAir tempDewpointWater temp
2015-Mar-28 03:16N 37°47' E 024°11'8 8.8
2015-Mar-28 02:24N 37°54' E 024°09'7 8.8
2015-Mar-28 01:34N 38°02' E 024°09'9 9.1
2015-Mar-28 00:33N 38°11' E 024°07'18 8.9
2015-Mar-27 22:33N 38°21' E 023°49'  
2015-Mar-19 23:33N 37°40' E 023°42'8 8.4
2015-Mar-19 22:33N 37°48' E 023°37'9 8.0
2015-Mar-19 21:29N 37°50' E 023°27'11 0.3
2015-Mar-18 12:11N 37°43' E 023°17'6 8.5
2015-Mar-18 11:32N 37°39' E 023°22'10 9.8
2015-Mar-18 10:33N 37°39' E 023°34'9 9.5
2015-Mar-18 09:33N 37°38' E 023°46'31 7.6
2015-Mar-18 05:29N 38°05' E 024°05'  

Dump ship's entire track history